Plymouth, Indiana
Current Conditions -  °F | °C
As of 2:55 AM on Thursday 27 Nov 2014 (Local Time) from KOXI Reporting Station
Overcast Overcast  
Wind Chill: 21°   Ceiling: 4800
Heat Index: 27°   Visibility: 7mi
Dew Point: 22°   Wind: 5mph
Humidity: 83%   Direction: 280°W
Pressure: 30.17"   Gusts: NA
Location:  41.34°N, 86.31°W
Report Text: KOXI 270755Z AUTO 28004KT 7SM SCT039 OVC048 M03/M05 A3017 RMK AO1 T10291055
Loading
Personal Weather Stations






























Interactive Weather Map New forecast layout! Learn more

10-Day Weather Forecast

Advertisements
Track Severe Weather on mobile